createdAt,value
2018-08-25T00:01:07.737Z,15.30
2018-08-25T00:03:36.798Z,15.20
2018-08-25T00:06:06.110Z,15.10
2018-08-25T00:08:35.488Z,15.00
2018-08-25T00:11:04.557Z,15.00
2018-08-25T00:13:33.584Z,15.10
2018-08-25T00:16:02.760Z,15.10
2018-08-25T00:18:31.916Z,15.10
2018-08-25T00:21:01.446Z,15.10
2018-08-25T00:23:30.545Z,15.00
2018-08-25T00:26:00.130Z,14.90
2018-08-25T00:28:29.361Z,14.90
2018-08-25T00:31:03.534Z,14.90
2018-08-25T00:33:32.602Z,14.80
2018-08-25T00:36:02.316Z,14.70
2018-08-25T00:38:31.408Z,14.70
2018-08-25T00:41:01.361Z,14.60
2018-08-25T00:43:30.536Z,14.50
2018-08-25T00:45:59.795Z,14.40
2018-08-25T00:48:28.876Z,14.40
2018-08-25T00:50:57.984Z,14.30
2018-08-25T00:53:27.282Z,14.40
2018-08-25T00:55:56.503Z,14.30
2018-08-25T00:58:25.765Z,14.20
2018-08-25T01:00:55.016Z,14.20
2018-08-25T01:03:24.772Z,14.20
2018-08-25T01:05:53.905Z,14.10
2018-08-25T01:08:22.958Z,14.10
2018-08-25T01:10:52.018Z,14.10
2018-08-25T01:13:21.128Z,14.00
2018-08-25T01:15:50.261Z,14.00
2018-08-25T01:18:19.328Z,13.90
2018-08-25T01:20:49.021Z,14.00
2018-08-25T01:23:18.219Z,13.90
2018-08-25T01:25:47.307Z,13.90
2018-08-25T01:28:16.399Z,13.90
2018-08-25T01:30:45.577Z,13.80
2018-08-25T01:33:14.668Z,13.80
2018-08-25T01:35:43.724Z,13.80
2018-08-25T01:38:12.997Z,13.70
2018-08-25T01:40:42.205Z,13.70
2018-08-25T01:43:11.371Z,13.70
2018-08-25T01:45:40.460Z,13.70
2018-08-25T01:48:09.459Z,13.70
2018-08-25T01:50:38.684Z,13.60
2018-08-25T01:53:08.136Z,13.50
2018-08-25T01:55:37.988Z,13.40
2018-08-25T01:58:07.793Z,13.40
2018-08-25T02:00:36.938Z,13.30
2018-08-25T02:03:06.028Z,13.30
2018-08-25T02:05:35.107Z,13.30
2018-08-25T02:08:05.362Z,13.30
2018-08-25T02:10:34.540Z,13.30
2018-08-25T02:13:03.628Z,13.20
2018-08-25T02:15:32.853Z,13.20
2018-08-25T02:18:01.854Z,13.20
2018-08-25T02:20:30.926Z,13.20
2018-08-25T02:23:00.043Z,13.10
2018-08-25T02:25:29.157Z,13.10
2018-08-25T02:27:59.211Z,13.10
2018-08-25T02:30:28.356Z,13.00
2018-08-25T02:32:57.400Z,13.00
2018-08-25T02:35:26.589Z,12.90
2018-08-25T02:37:56.258Z,12.90
2018-08-25T02:40:25.458Z,12.80
2018-08-25T02:42:55.049Z,12.80
2018-08-25T02:45:24.847Z,12.80
2018-08-25T02:47:54.930Z,12.70
2018-08-25T02:50:24.372Z,12.70
2018-08-25T02:52:53.767Z,12.70
2018-08-25T02:55:23.138Z,12.60
2018-08-25T02:57:52.245Z,12.60
2018-08-25T03:00:21.370Z,12.70
2018-08-25T03:02:50.449Z,12.60
2018-08-25T03:05:19.604Z,12.70
2018-08-25T03:07:48.718Z,12.80
2018-08-25T03:10:17.898Z,12.80
2018-08-25T03:12:47.341Z,12.80
2018-08-25T03:15:16.587Z,12.80
2018-08-25T03:17:45.697Z,12.80
2018-08-25T03:20:14.784Z,12.90
2018-08-25T03:22:43.841Z,12.90
2018-08-25T03:25:12.931Z,12.90
2018-08-25T03:27:42.884Z,13.00
2018-08-25T03:30:12.146Z,13.00
2018-08-25T03:32:41.351Z,12.90
2018-08-25T03:35:10.617Z,12.90
2018-08-25T03:37:39.782Z,12.90
2018-08-25T03:40:08.987Z,12.80
2018-08-25T03:42:38.083Z,12.80
2018-08-25T03:45:07.339Z,12.70
2018-08-25T03:47:36.620Z,12.60
2018-08-25T03:50:05.733Z,12.60
2018-08-25T03:52:34.828Z,12.60
2018-08-25T03:55:03.929Z,12.60
2018-08-25T03:57:33.196Z,12.60
2018-08-25T04:00:02.308Z,12.50
2018-08-25T04:02:33.356Z,12.60
2018-08-25T04:05:02.408Z,12.50
2018-08-25T04:07:31.513Z,12.50
2018-08-25T04:10:00.696Z,12.50
2018-08-25T04:12:29.783Z,12.50
2018-08-25T04:14:58.989Z,12.50
2018-08-25T04:17:28.017Z,12.50
2018-08-25T04:19:57.239Z,12.50
2018-08-25T04:22:26.981Z,12.50
2018-08-25T04:24:56.266Z,12.60
2018-08-25T04:27:25.471Z,12.60
2018-08-25T04:29:54.500Z,12.60
2018-08-25T04:32:23.569Z,12.60
2018-08-25T04:34:52.760Z,12.60
2018-08-25T04:37:21.878Z,12.70
2018-08-25T04:39:50.931Z,12.80
2018-08-25T04:42:20.138Z,12.80
2018-08-25T04:44:49.193Z,12.80
2018-08-25T04:47:18.291Z,12.70
2018-08-25T04:49:47.413Z,12.70
2018-08-25T04:52:16.619Z,12.80
2018-08-25T04:54:45.694Z,12.80
2018-08-25T04:57:14.816Z,12.90
2018-08-25T04:59:43.883Z,13.00
2018-08-25T05:02:13.116Z,13.20
2018-08-25T05:04:42.164Z,13.20
2018-08-25T05:07:11.239Z,13.20
2018-08-25T05:09:42.375Z,13.30
2018-08-25T05:12:11.500Z,13.20
2018-08-25T05:14:40.596Z,13.30
2018-08-25T05:17:09.672Z,13.40
2018-08-25T05:19:38.838Z,13.40
2018-08-25T05:22:08.078Z,13.50
2018-08-25T05:24:37.111Z,13.60
2018-08-25T05:27:06.290Z,13.70
2018-08-25T05:29:35.359Z,13.80
2018-08-25T05:32:04.428Z,13.90
2018-08-25T05:34:33.540Z,14.00
2018-08-25T05:37:02.590Z,14.00
2018-08-25T05:39:31.707Z,13.90
2018-08-25T05:42:01.266Z,13.80
2018-08-25T05:44:30.500Z,13.90
2018-08-25T05:46:59.528Z,13.80
2018-08-25T05:49:28.680Z,13.90
2018-08-25T05:51:57.959Z,13.90
2018-08-25T05:54:27.486Z,14.00
2018-08-25T05:56:56.548Z,14.00
2018-08-25T05:59:26.444Z,14.10
2018-08-25T06:01:55.544Z,14.20
2018-08-25T06:04:24.636Z,14.40
2018-08-25T06:06:53.785Z,14.60
2018-08-25T06:09:23.637Z,14.80
2018-08-25T06:11:52.761Z,15.00
2018-08-25T06:14:21.896Z,15.10
2018-08-25T06:16:52.165Z,15.30
2018-08-25T06:19:21.978Z,15.50
2018-08-25T06:21:51.993Z,15.70
2018-08-25T06:24:21.088Z,15.90
2018-08-25T06:26:50.908Z,16.00
2018-08-25T06:29:20.125Z,16.10
2018-08-25T06:31:49.205Z,16.10
2018-08-25T06:34:18.295Z,16.20
2018-08-25T06:36:47.470Z,16.40
2018-08-25T06:39:16.612Z,16.60
2018-08-25T06:41:45.736Z,16.70
2018-08-25T06:44:14.918Z,16.90
2018-08-25T06:46:44.517Z,17.20
2018-08-25T06:49:13.622Z,17.60
2018-08-25T06:51:42.749Z,18.30
2018-08-25T06:54:11.922Z,18.60
2018-08-25T06:56:41.329Z,18.80
2018-08-25T06:59:10.698Z,18.70
2018-08-25T07:01:39.843Z,18.70
2018-08-25T07:04:08.982Z,18.80
2018-08-25T07:06:38.161Z,19.20
2018-08-25T07:09:09.314Z,19.60
2018-08-25T07:11:38.459Z,19.90
2018-08-25T07:14:07.644Z,20.10
2018-08-25T07:16:36.731Z,20.10
2018-08-25T07:19:06.044Z,20.20
2018-08-25T07:21:35.135Z,20.20
2018-08-25T07:24:04.288Z,20.00
2018-08-25T07:26:33.532Z,20.10
2018-08-25T07:29:02.627Z,20.30
2018-08-25T07:31:31.900Z,20.30
2018-08-25T07:34:01.341Z,20.10
2018-08-25T07:36:30.391Z,20.20
2018-08-25T07:39:00.188Z,20.00
2018-08-25T07:41:29.253Z,20.00
2018-08-25T07:43:58.541Z,20.10
2018-08-25T07:46:27.594Z,20.10
2018-08-25T07:48:56.785Z,19.80
2018-08-25T07:51:25.932Z,19.50
2018-08-25T07:53:55.004Z,19.20
2018-08-25T07:56:24.568Z,19.00
2018-08-25T07:58:53.606Z,18.90
2018-08-25T08:01:22.653Z,18.70
2018-08-25T08:03:51.852Z,18.50
2018-08-25T08:06:21.770Z,18.30
2018-08-25T08:08:50.972Z,18.00
2018-08-25T08:11:20.038Z,17.90
2018-08-25T08:13:49.193Z,17.80
2018-08-25T08:16:18.344Z,17.80
2018-08-25T08:18:48.774Z,17.70
2018-08-25T08:21:17.940Z,17.50
2018-08-25T08:23:47.659Z,17.50
2018-08-25T08:26:17.391Z,17.20
2018-08-25T08:28:46.766Z,17.10
2018-08-25T08:31:15.876Z,17.00
2018-08-25T08:33:44.999Z,16.90
2018-08-25T08:36:14.978Z,16.80
2018-08-25T08:38:44.115Z,16.60
2018-08-25T08:41:13.448Z,16.40
2018-08-25T08:43:42.548Z,16.40
2018-08-25T08:46:11.716Z,16.30
2018-08-25T08:48:42.127Z,16.30
2018-08-25T08:51:11.222Z,16.40
2018-08-25T08:53:40.400Z,16.40
2018-08-25T08:56:09.488Z,16.60
2018-08-25T08:58:38.597Z,16.60
2018-08-25T09:01:07.775Z,16.60
2018-08-25T09:03:36.839Z,16.50
2018-08-25T09:06:06.558Z,16.50
2018-08-25T09:08:35.717Z,16.50
2018-08-25T09:11:04.856Z,16.50
2018-08-25T09:13:33.893Z,16.40
2018-08-25T09:16:03.399Z,16.30
2018-08-25T09:18:33.212Z,16.30
2018-08-25T09:21:02.287Z,16.40
2018-08-25T09:23:31.357Z,16.30
2018-08-25T09:26:00.438Z,16.30
2018-08-25T09:28:29.494Z,16.40
2018-08-25T09:30:58.822Z,16.60
2018-08-25T09:33:28.049Z,16.80
2018-08-25T09:35:57.255Z,16.80
2018-08-25T09:38:27.481Z,16.90
2018-08-25T09:40:56.568Z,17.00
2018-08-25T09:43:25.697Z,17.10
2018-08-25T09:45:54.793Z,17.20
2018-08-25T09:48:23.892Z,17.30
2018-08-25T09:50:53.091Z,17.40
2018-08-25T09:53:22.314Z,17.70
2018-08-25T09:55:51.628Z,17.80
2018-08-25T09:58:20.791Z,17.90
2018-08-25T10:00:55.149Z,18.00
2018-08-25T10:03:24.243Z,18.00
2018-08-25T10:05:53.400Z,17.60
2018-08-25T10:08:22.504Z,17.50
2018-08-25T10:10:51.634Z,17.30
2018-08-25T10:13:20.693Z,17.20
2018-08-25T10:15:49.772Z,17.10
2018-08-25T10:18:18.826Z,17.10
2018-08-25T10:20:47.960Z,17.00
2018-08-25T10:23:17.050Z,17.10
2018-08-25T10:25:46.154Z,16.90
2018-08-25T10:28:15.698Z,16.80
2018-08-25T10:30:44.863Z,16.60
2018-08-25T10:33:13.948Z,16.50
2018-08-25T10:35:43.045Z,16.40
2018-08-25T10:38:12.131Z,16.10
2018-08-25T10:40:41.232Z,16.10
2018-08-25T10:43:10.295Z,16.00
2018-08-25T10:45:39.373Z,16.00
2018-08-25T10:48:08.673Z,15.90
2018-08-25T10:50:37.707Z,16.00
2018-08-25T10:53:06.936Z,16.00
2018-08-25T10:55:36.172Z,15.90
2018-08-25T10:58:05.400Z,15.90
2018-08-25T11:00:34.616Z,15.70
2018-08-25T11:03:03.700Z,15.70
2018-08-25T11:05:32.913Z,15.60
2018-08-25T11:08:01.996Z,15.50
2018-08-25T11:10:31.104Z,15.30
2018-08-25T11:13:00.763Z,15.20
2018-08-25T11:15:29.933Z,15.30
2018-08-25T11:17:59.009Z,15.40
2018-08-25T11:20:28.105Z,15.40
2018-08-25T11:22:57.216Z,15.40
2018-08-25T11:25:26.365Z,15.50
2018-08-25T11:27:56.292Z,15.50
2018-08-25T11:30:25.506Z,15.50
2018-08-25T11:32:54.645Z,15.60
2018-08-25T11:35:23.726Z,15.70
2018-08-25T11:37:53.161Z,15.70
2018-08-25T11:40:22.188Z,15.60
2018-08-25T11:42:51.321Z,15.70
2018-08-25T11:45:20.443Z,15.70
2018-08-25T11:47:49.621Z,15.70
2018-08-25T11:50:18.675Z,15.70
2018-08-25T11:52:47.863Z,15.90
2018-08-25T11:55:17.213Z,16.10
2018-08-25T11:57:46.781Z,16.10
2018-08-25T12:00:15.840Z,15.90
2018-08-25T12:02:44.972Z,15.90
2018-08-25T12:05:14.133Z,15.70
2018-08-25T12:07:43.265Z,15.70
2018-08-25T12:10:12.429Z,15.70
2018-08-25T12:12:42.124Z,15.60
2018-08-25T12:15:11.191Z,15.50
2018-08-25T12:17:40.416Z,15.50
2018-08-25T12:20:09.552Z,15.40
2018-08-25T12:22:38.815Z,15.50
2018-08-25T12:25:08.072Z,15.30
2018-08-25T12:27:37.164Z,15.40
2018-08-25T12:30:07.475Z,15.50
2018-08-25T12:32:36.787Z,15.60
2018-08-25T12:35:06.022Z,15.70
2018-08-25T12:37:35.121Z,15.70
2018-08-25T12:40:05.423Z,15.70
2018-08-25T12:42:34.544Z,15.70
2018-08-25T12:45:03.746Z,15.60
2018-08-25T12:47:32.932Z,15.70
2018-08-25T12:50:02.137Z,15.80
2018-08-25T12:52:31.196Z,15.80
2018-08-25T12:55:00.789Z,15.60
2018-08-25T12:57:29.917Z,15.60
2018-08-25T12:59:59.088Z,15.60
2018-08-25T13:02:28.272Z,15.70
2018-08-25T13:04:57.471Z,15.90
2018-08-25T13:07:26.596Z,16.20
2018-08-25T13:09:55.732Z,16.30
2018-08-25T13:12:24.799Z,16.40
2018-08-25T13:14:53.871Z,16.50
2018-08-25T13:17:23.030Z,16.70
2018-08-25T13:19:52.183Z,16.80
2018-08-25T13:22:21.306Z,16.90
2018-08-25T13:24:50.405Z,17.00
2018-08-25T13:27:19.431Z,17.00
2018-08-25T13:29:48.533Z,17.00
2018-08-25T13:32:17.655Z,16.90
2018-08-25T13:34:46.737Z,17.00
2018-08-25T13:37:15.807Z,16.90
2018-08-25T13:39:44.908Z,17.10
2018-08-25T13:42:14.001Z,17.20
2018-08-25T13:44:43.140Z,17.20
2018-08-25T13:47:12.360Z,16.90
2018-08-25T13:49:42.188Z,17.00
2018-08-25T13:52:11.333Z,17.10
2018-08-25T13:54:40.452Z,17.30
2018-08-25T13:57:09.604Z,17.60
2018-08-25T13:59:38.704Z,17.80
2018-08-25T14:02:07.866Z,18.10
2018-08-25T14:04:36.973Z,18.40
2018-08-25T14:07:06.103Z,18.70
2018-08-25T14:09:35.495Z,18.90
2018-08-25T14:12:04.523Z,18.90
2018-08-25T14:14:33.755Z,18.90
2018-08-25T14:17:02.959Z,18.90
2018-08-25T14:19:32.145Z,19.10
2018-08-25T14:22:01.290Z,19.10
2018-08-25T14:24:30.470Z,19.20
2018-08-25T14:26:59.542Z,19.30
2018-08-25T14:29:28.837Z,19.20
2018-08-25T14:31:58.298Z,19.30
2018-08-25T14:34:28.486Z,19.20
2018-08-25T14:36:58.376Z,18.90
2018-08-25T14:39:27.551Z,18.60
2018-08-25T14:41:56.673Z,18.30
2018-08-25T14:44:26.412Z,18.30
2018-08-25T14:46:56.192Z,18.40
2018-08-25T14:49:25.369Z,18.40
2018-08-25T14:51:54.454Z,18.50
2018-08-25T14:54:23.531Z,18.50
2018-08-25T14:56:52.560Z,18.50
2018-08-25T14:59:21.659Z,18.10
2018-08-25T15:01:51.533Z,17.90
2018-08-25T15:04:20.680Z,17.40
2018-08-25T15:06:50.325Z,16.90
2018-08-25T15:09:19.613Z,16.20
2018-08-25T15:11:48.937Z,15.70
2018-08-25T15:14:18.029Z,15.50
2018-08-25T15:16:47.180Z,15.30
2018-08-25T15:19:16.376Z,14.90
2018-08-25T15:21:47.139Z,14.70
2018-08-25T15:24:16.828Z,14.70
2018-08-25T15:26:45.997Z,14.70
2018-08-25T15:29:15.125Z,14.80
2018-08-25T15:31:44.216Z,15.00
2018-08-25T15:34:13.344Z,15.20
2018-08-25T15:36:42.545Z,15.50
2018-08-25T15:39:13.660Z,15.80
2018-08-25T15:41:43.381Z,16.00
2018-08-25T15:44:12.839Z,16.10
2018-08-25T15:46:41.884Z,16.40
2018-08-25T15:49:10.999Z,16.60
2018-08-25T15:51:40.181Z,16.90
2018-08-25T15:54:09.783Z,17.40
2018-08-25T15:56:38.800Z,17.90
2018-08-25T15:59:07.909Z,18.50
2018-08-25T16:01:37.703Z,18.70
2018-08-25T16:04:06.856Z,18.70
2018-08-25T16:06:36.003Z,18.50
2018-08-25T16:09:07.872Z,18.10
2018-08-25T16:11:37.065Z,17.80
2018-08-25T16:14:07.044Z,17.50
2018-08-25T16:16:36.192Z,17.20
2018-08-25T16:19:05.413Z,17.20
2018-08-25T16:21:34.607Z,17.20
2018-08-25T16:24:03.717Z,17.10
2018-08-25T16:26:32.794Z,17.00
2018-08-25T16:29:02.695Z,17.10
2018-08-25T16:31:31.748Z,17.10
2018-08-25T16:34:01.562Z,17.10
2018-08-25T16:36:31.139Z,17.10
2018-08-25T16:39:00.187Z,17.20
2018-08-25T16:41:29.934Z,17.10
2018-08-25T16:43:59.677Z,17.10
2018-08-25T16:46:28.835Z,17.00
2018-08-25T16:48:58.107Z,16.90
2018-08-25T16:51:27.212Z,16.90
2018-08-25T16:53:56.272Z,16.90
2018-08-25T16:56:25.349Z,16.80
2018-08-25T16:58:55.135Z,16.80
2018-08-25T17:01:24.230Z,16.80
2018-08-25T17:03:53.409Z,16.70
2018-08-25T17:06:22.661Z,16.60
2018-08-25T17:08:51.812Z,16.60
2018-08-25T17:11:21.041Z,16.60
2018-08-25T17:13:50.856Z,16.40
2018-08-25T17:16:20.651Z,16.30
2018-08-25T17:18:49.807Z,16.10
2018-08-25T17:21:18.891Z,16.10
2018-08-25T17:23:47.988Z,16.10
2018-08-25T17:26:17.112Z,16.10
2018-08-25T17:28:46.161Z,16.10
2018-08-25T17:31:15.252Z,16.10
2018-08-25T17:33:44.344Z,16.10
2018-08-25T17:36:14.173Z,16.00
2018-08-25T17:38:44.497Z,16.00
2018-08-25T17:41:13.614Z,15.90
2018-08-25T17:43:42.696Z,15.90
2018-08-25T17:46:11.766Z,15.90
2018-08-25T17:48:40.857Z,15.90
2018-08-25T17:51:10.733Z,15.90
2018-08-25T17:53:39.788Z,15.90
2018-08-25T17:56:08.865Z,15.80
2018-08-25T17:58:38.121Z,15.80
2018-08-25T18:01:07.313Z,15.80
2018-08-25T18:03:36.384Z,15.70
2018-08-25T18:06:06.070Z,15.70
2018-08-25T18:08:35.177Z,15.70
2018-08-25T18:11:04.402Z,15.60
2018-08-25T18:13:33.472Z,15.50
2018-08-25T18:16:02.728Z,15.50
2018-08-25T18:18:31.920Z,15.30
2018-08-25T18:21:01.116Z,15.20
2018-08-25T18:23:31.045Z,15.00
2018-08-25T18:26:00.632Z,14.80
2018-08-25T18:28:29.928Z,14.70
2018-08-25T18:30:59.062Z,14.40
2018-08-25T18:33:28.559Z,14.30
2018-08-25T18:35:57.659Z,14.20
2018-08-25T18:38:26.705Z,14.10
2018-08-25T18:40:55.907Z,14.00
2018-08-25T18:43:25.418Z,14.00
2018-08-25T18:45:54.542Z,13.90
2018-08-25T18:48:23.636Z,13.80
2018-08-25T18:50:53.049Z,13.70
2018-08-25T18:53:22.453Z,13.60
2018-08-25T18:55:51.774Z,13.60
2018-08-25T18:58:21.187Z,13.60
2018-08-25T19:00:50.551Z,13.60
2018-08-25T19:03:21.259Z,13.50
2018-08-25T19:05:50.596Z,13.50
2018-08-25T19:08:19.940Z,13.50
2018-08-25T19:10:50.048Z,13.60
2018-08-25T19:13:19.708Z,13.60
2018-08-25T19:15:49.176Z,13.60
2018-08-25T19:18:18.317Z,13.70
2018-08-25T19:20:47.643Z,13.80
2018-08-25T19:23:17.012Z,13.80
2018-08-25T19:25:46.410Z,13.80
2018-08-25T19:28:15.819Z,13.90
2018-08-25T19:30:45.329Z,13.90
2018-08-25T19:33:14.938Z,13.90
2018-08-25T19:35:44.346Z,13.90
2018-08-25T19:38:13.726Z,14.00
2018-08-25T19:40:43.145Z,14.10
2018-08-25T19:43:12.514Z,14.00
2018-08-25T19:45:42.022Z,14.00
2018-08-25T19:48:11.626Z,14.10
2018-08-25T19:50:41.067Z,14.10
2018-08-25T19:53:10.469Z,14.10
2018-08-25T19:55:39.802Z,14.20
2018-08-25T19:58:09.008Z,14.20
2018-08-25T20:00:38.416Z,14.20
2018-08-25T20:03:07.530Z,14.20
2018-08-25T20:05:37.278Z,14.20
2018-08-25T20:08:06.732Z,14.20
2018-08-25T20:10:36.145Z,14.20
2018-08-25T20:13:06.145Z,14.20
2018-08-25T20:15:35.506Z,14.10
2018-08-25T20:18:05.330Z,14.10
2018-08-25T20:20:34.419Z,13.90
2018-08-25T20:23:03.824Z,13.90
2018-08-25T20:25:33.177Z,13.70
2018-08-25T20:28:02.344Z,13.70
2018-08-25T20:30:31.821Z,13.60
2018-08-25T20:33:01.350Z,13.40
2018-08-25T20:35:30.676Z,13.30
2018-08-25T20:38:00.635Z,13.20
2018-08-25T20:40:30.122Z,13.00
2018-08-25T20:42:59.689Z,12.90
2018-08-25T20:45:29.137Z,12.80
2018-08-25T20:47:58.981Z,12.70
2018-08-25T20:50:28.017Z,12.50
2018-08-25T20:52:57.233Z,12.40
2018-08-25T20:55:26.420Z,12.30
2018-08-25T20:57:55.565Z,12.20
2018-08-25T21:00:24.604Z,12.10
2018-08-25T21:02:53.664Z,12.10
2018-08-25T21:05:22.738Z,12.00
2018-08-25T21:07:51.831Z,11.90
2018-08-25T21:10:21.001Z,11.90
2018-08-25T21:12:50.072Z,11.90
2018-08-25T21:15:19.177Z,11.90
2018-08-25T21:17:48.293Z,11.80
2018-08-25T21:20:17.299Z,11.70
2018-08-25T21:22:46.533Z,11.70
2018-08-25T21:25:15.656Z,11.60
2018-08-25T21:27:44.728Z,11.60
2018-08-25T21:30:13.821Z,11.50
2018-08-25T21:32:42.905Z,11.40
2018-08-25T21:35:12.141Z,11.40
2018-08-25T21:37:41.198Z,11.50
2018-08-25T21:40:11.006Z,11.40
2018-08-25T21:42:40.081Z,11.40
2018-08-25T21:45:09.093Z,11.40
2018-08-25T21:47:38.181Z,11.30
2018-08-25T21:50:07.404Z,11.30
2018-08-25T21:52:36.620Z,11.30
2018-08-25T21:55:05.832Z,11.20
2018-08-25T21:57:35.024Z,11.20
2018-08-25T22:00:04.828Z,11.20
2018-08-25T22:02:33.873Z,11.10
2018-08-25T22:05:02.928Z,11.10
2018-08-25T22:07:32.068Z,11.10
2018-08-25T22:10:01.156Z,11.00
2018-08-25T22:12:30.263Z,11.10
2018-08-25T22:14:59.297Z,11.10
2018-08-25T22:17:28.397Z,11.10
2018-08-25T22:19:58.063Z,11.10
2018-08-25T22:22:27.884Z,11.10
2018-08-25T22:24:57.763Z,11.00
2018-08-25T22:27:27.002Z,11.00
2018-08-25T22:29:56.140Z,11.00
2018-08-25T22:32:25.326Z,10.90
2018-08-25T22:34:55.189Z,10.90
2018-08-25T22:37:24.239Z,10.90
2018-08-25T22:39:53.290Z,10.90
2018-08-25T22:42:22.341Z,10.90
2018-08-25T22:44:51.394Z,10.90
2018-08-25T22:47:20.568Z,10.90
2018-08-25T22:49:49.619Z,10.90
2018-08-25T22:52:22.985Z,10.90
2018-08-25T22:54:52.825Z,10.90
2018-08-25T22:57:21.867Z,10.90
2018-08-25T22:59:51.450Z,10.90
2018-08-25T23:02:20.510Z,10.90
2018-08-25T23:04:49.693Z,10.90
2018-08-25T23:07:18.777Z,11.00
2018-08-25T23:09:47.916Z,11.00
2018-08-25T23:12:17.004Z,11.00
2018-08-25T23:14:46.100Z,11.00
2018-08-25T23:17:15.153Z,11.00
2018-08-25T23:19:45.183Z,11.00
2018-08-25T23:22:14.228Z,11.00
2018-08-25T23:24:43.295Z,11.00
2018-08-25T23:27:12.482Z,11.00
2018-08-25T23:29:41.762Z,11.00
2018-08-25T23:32:10.874Z,11.00
2018-08-25T23:34:39.994Z,10.90
2018-08-25T23:37:09.875Z,10.90
2018-08-25T23:39:38.910Z,10.80
2018-08-25T23:42:08.011Z,10.70
2018-08-25T23:44:37.064Z,10.70
2018-08-25T23:47:06.169Z,10.60
2018-08-25T23:49:35.759Z,10.60
2018-08-25T23:52:05.032Z,10.60
2018-08-25T23:54:34.197Z,10.60
2018-08-25T23:57:03.333Z,10.60
2018-08-25T23:59:32.517Z,10.50
